Time;durP1;ratioP1;P1;durP2;ratioP2;P2;SDS_P1;SDS_P2;PMS_P1;PMS_P2;Temp;Humidity;BMP_temperature;BMP_pressure;BME280_temperature;BME280_humidity;BME280_pressure;Samples;Min_cycle;Max_cycle;Signal;HPM_P1;HPM_P2
2023/08/04 00:00:09;;;;;;;1999.90;999.90;;;16.60;99.90;;;;;;5039599;28;20041;-81
2023/08/04 00:02:38;;;;;;;1999.90;999.90;;;16.60;99.90;;;;;;5039560;28;20135;-82
2023/08/04 00:05:05;;;;;;;1999.90;999.90;;;16.60;99.90;;;;;;5039671;28;20055;-81
2023/08/04 00:07:31;;;;;;;1999.90;999.90;;;16.60;99.90;;;;;;5041297;28;20054;-82
2023/08/04 00:09:57;;;;;;;1999.90;999.90;;;16.60;99.90;;;;;;5040000;28;20052;-82
2023/08/04 00:12:23;;;;;;;1999.90;999.90;;;16.60;99.90;;;;;;5042316;28;20052;-81
2023/08/04 00:14:49;;;;;;;1999.90;999.90;;;16.60;99.90;;;;;;5058806;28;20084;-82
2023/08/04 00:17:15;;;;;;;1999.90;999.90;;;16.60;99.90;;;;;;5025496;28;20063;-80
2023/08/04 00:19:42;;;;;;;1999.90;999.90;;;16.50;99.90;;;;;;5059718;28;20040;-82
2023/08/04 00:22:08;;;;;;;1999.90;999.90;;;16.50;99.90;;;;;;5056268;28;20134;-83
2023/08/04 00:24:34;;;;;;;1999.90;999.90;;;16.50;99.90;;;;;;5039543;28;20090;-83
2023/08/04 00:27:01;;;;;;;1999.90;999.90;;;16.60;99.90;;;;;;5039415;28;20048;-80
2023/08/04 00:29:27;;;;;;;1999.90;999.90;;;16.50;99.90;;;;;;5038908;28;20472;-81
2023/08/04 00:31:53;;;;;;;1999.90;999.90;;;16.60;99.90;;;;;;5039303;28;20045;-81
2023/08/04 00:34:19;;;;;;;1999.90;999.90;;;16.60;99.90;;;;;;5038603;28;20102;-81
2023/08/04 00:36:46;;;;;;;1999.90;999.90;;;16.50;99.90;;;;;;5041309;28;20051;-81
2023/08/04 00:39:13;;;;;;;1999.90;999.90;;;16.50;99.90;;;;;;5059639;28;20056;-81
2023/08/04 00:41:39;;;;;;;1999.90;999.90;;;16.50;99.90;;;;;;5043741;28;20056;-82
2023/08/04 00:44:05;;;;;;;1999.90;999.90;;;16.50;99.90;;;;;;5026546;28;20087;-82
2023/08/04 00:46:31;;;;;;;1999.90;999.90;;;16.50;99.90;;;;;;5059531;28;20091;-82
2023/08/04 00:48:59;;;;;;;1999.90;999.90;;;16.50;99.90;;;;;;5043628;28;20048;-82
2023/08/04 00:51:25;;;;;;;1999.90;999.90;;;16.50;99.90;;;;;;5059665;28;20102;-82
2023/08/04 00:53:51;;;;;;;1999.90;999.90;;;16.50;99.90;;;;;;5042792;28;20075;-82
2023/08/04 00:56:17;;;;;;;1999.90;999.90;;;16.50;99.90;;;;;;5059108;28;20056;-82
2023/08/04 00:58:43;;;;;;;1999.90;999.90;;;16.50;99.90;;;;;;5059318;28;20475;-82
2023/08/04 01:01:09;;;;;;;1999.90;999.90;;;16.50;99.90;;;;;;5042725;28;20041;-82
2023/08/04 01:03:36;;;;;;;1999.90;999.90;;;16.40;99.90;;;;;;5026116;28;20415;-82
2023/08/04 01:06:08;;;;;;;1999.90;999.90;;;16.40;99.90;;;;;;5059162;28;20499;-81
2023/08/04 01:08:35;;;;;;;1999.90;999.90;;;16.50;99.90;;;;;;5043296;28;20139;-80
2023/08/04 01:11:17;;;;;;;1999.90;999.90;;;16.40;99.90;;;;;;5042208;28;20044;-80
2023/08/04 01:13:47;;;;;;;1999.90;999.90;;;16.40;99.90;;;;;;5042646;28;20060;-81
2023/08/04 01:16:13;;;;;;;1999.90;999.90;;;16.40;99.90;;;;;;5042216;28;20556;-81
2023/08/04 01:18:38;;;;;;;1999.90;999.90;;;16.40;99.90;;;;;;5042673;28;20044;-82
2023/08/04 01:21:05;;;;;;;1999.90;999.90;;;16.40;99.90;;;;;;5059081;28;20194;-82
2023/08/04 01:23:32;;;;;;;1999.90;999.90;;;16.40;99.90;;;;;;5058902;28;20127;-82
2023/08/04 01:25:59;;;;;;;1999.90;999.90;;;16.40;99.90;;;;;;5058842;28;20045;-84
2023/08/04 01:28:25;;;;;;;1999.90;999.90;;;16.40;99.90;;;;;;5059627;28;20375;-81
2023/08/04 01:30:55;;;;;;;1999.90;999.90;;;16.30;99.90;;;;;;5042854;28;20186;-82
2023/08/04 01:33:22;;;;;;;1999.90;999.90;;;16.30;99.90;;;;;;5059170;28;20390;-81
2023/08/04 01:35:49;;;;;;;1999.90;999.90;;;16.30;99.90;;;;;;5058907;28;20059;-81
2023/08/04 01:38:15;;;;;;;1999.90;999.90;;;16.30;99.90;;;;;;5043390;28;20052;-81
2023/08/04 01:40:41;;;;;;;1999.90;999.90;;;16.30;99.90;;;;;;5043176;28;20047;-79
2023/08/04 01:43:06;;;;;;;1999.90;999.90;;;16.20;99.90;;;;;;5058493;28;20101;-80
2023/08/04 01:45:32;;;;;;;1999.90;999.90;;;16.20;99.90;;;;;;5041470;28;20221;-82
2023/08/04 01:47:58;;;;;;;1999.90;999.90;;;16.20;99.90;;;;;;5041431;28;20052;-81
2023/08/04 01:50:23;;;;;;;1999.90;999.90;;;16.10;99.90;;;;;;5041830;28;20044;-81
2023/08/04 01:52:49;;;;;;;1999.90;999.90;;;16.10;99.90;;;;;;5041701;28;20080;-80
2023/08/04 01:55:15;;;;;;;1999.90;999.90;;;16.00;99.90;;;;;;5024984;28;20495;-82
2023/08/04 01:57:41;;;;;;;1999.90;999.90;;;16.00;99.90;;;;;;5041604;28;20135;-82
2023/08/04 02:00:08;;;;;;;1999.90;999.90;;;15.90;99.90;;;;;;5025070;28;20052;-83
2023/08/04 02:02:33;;;;;;;1999.90;999.90;;;15.90;99.90;;;;;;5025184;28;20048;-83
2023/08/04 02:04:59;;;;;;;1999.90;999.90;;;15.90;99.90;;;;;;5025061;28;20047;-82
2023/08/04 02:07:25;;;;;;;1999.90;999.90;;;15.90;99.90;;;;;;5024948;28;20045;-83
2023/08/04 02:09:52;;;;;;;1999.90;999.90;;;15.90;99.90;;;;;;5041389;28;20400;-81
2023/08/04 02:12:18;;;;;;;1999.90;999.90;;;15.90;99.90;;;;;;5041643;28;20385;-82
2023/08/04 02:14:44;;;;;;;1999.90;999.90;;;15.90;99.90;;;;;;5025010;28;20478;-80
2023/08/04 02:17:12;;;;;;;1999.90;999.90;;;15.90;99.90;;;;;;5075415;28;20114;-81
2023/08/04 02:19:37;;;;;;;1999.90;999.90;;;15.90;99.90;;;;;;5009876;28;20460;-80
2023/08/04 02:22:03;;;;;;;1999.90;999.90;;;15.90;99.90;;;;;;5008600;28;20044;-81
2023/08/04 02:24:29;;;;;;;1999.90;999.90;;;15.90;99.90;;;;;;5041881;28;20133;-82
2023/08/04 02:26:55;;;;;;;1999.90;999.90;;;15.90;99.90;;;;;;5057704;28;20087;-83
2023/08/04 02:29:21;;;;;;;1999.90;999.90;;;15.90;99.90;;;;;;5057583;28;20055;-82
2023/08/04 02:31:46;;;;;;;1999.90;999.90;;;15.90;99.90;;;;;;5024528;28;20044;-83
2023/08/04 02:34:12;;;;;;;1999.90;999.90;;;15.90;99.90;;;;;;5057465;28;20049;-80
2023/08/04 02:36:38;;;;;;;1999.90;999.90;;;15.90;99.90;;;;;;5075082;28;20090;-82
2023/08/04 02:39:04;;;;;;;1999.90;999.90;;;15.90;99.90;;;;;;5057427;28;20041;-81
2023/08/04 02:41:29;;;;;;;1999.90;999.90;;;15.90;99.90;;;;;;5040857;28;20044;-83
2023/08/04 02:43:55;;;;;;;1999.90;999.90;;;15.90;99.90;;;;;;5040803;28;20048;-82
2023/08/04 02:46:23;;;;;;;1999.90;999.90;;;15.90;99.90;;;;;;5024270;28;20127;-80
2023/08/04 02:48:48;;;;;;;1999.90;999.90;;;15.90;99.90;;;;;;5057025;28;20044;-81
2023/08/04 02:51:14;;;;;;;1999.90;999.90;;;15.90;99.90;;;;;;5057096;28;20110;-81
2023/08/04 02:53:43;;;;;;;1999.90;999.90;;;15.90;99.90;;;;;;5024028;28;20044;-82
2023/08/04 02:56:11;;;;;;;1999.90;999.90;;;15.90;99.90;;;;;;5056913;28;20493;-78
2023/08/04 02:58:37;;;;;;;1999.90;999.90;;;15.90;99.90;;;;;;5057946;28;20044;-81
2023/08/04 03:01:03;;;;;;;1999.90;999.90;;;15.90;99.90;;;;;;5039624;28;20071;-81
2023/08/04 03:03:30;;;;;;;1999.90;999.90;;;15.90;99.90;;;;;;5057017;28;20105;-82
2023/08/04 03:06:00;;;;;;;1999.90;999.90;;;15.90;99.90;;;;;;5040213;28;20044;-81
2023/08/04 03:08:26;;;;;;;1999.90;999.90;;;15.90;99.90;;;;;;5040396;28;20041;-81
2023/08/04 03:10:52;;;;;;;1999.90;999.90;;;15.90;99.90;;;;;;5024139;28;20090;-82
2023/08/04 03:13:18;;;;;;;1999.90;999.90;;;15.90;99.90;;;;;;5040140;28;20048;-80
2023/08/04 03:15:43;;;;;;;1999.90;999.90;;;15.90;99.90;;;;;;5040346;28;20052;-80
2023/08/04 03:18:09;;;;;;;1999.90;999.90;;;15.90;99.90;;;;;;5054175;28;20056;-82
2023/08/04 03:20:39;;;;;;;1999.90;999.90;;;15.90;99.90;;;;;;5056287;28;20064;-82
2023/08/04 03:23:06;;;;;;;1999.90;999.90;;;15.90;99.90;;;;;;5023295;28;20045;-83
2023/08/04 03:25:33;;;;;;;1999.90;999.90;;;15.80;99.90;;;;;;5056589;28;20510;-81
2023/08/04 03:28:00;;;;;;;1999.90;999.90;;;15.90;99.90;;;;;;5039973;28;20476;-81
2023/08/04 03:30:26;;;;;;;1999.90;999.90;;;15.90;99.90;;;;;;5056452;28;20044;-82
2023/08/04 03:32:52;;;;;;;1999.90;999.90;;;15.90;99.90;;;;;;5023794;28;20040;-83
2023/08/04 03:35:18;;;;;;;1999.90;999.90;;;15.80;99.90;;;;;;5039523;28;20042;-83
2023/08/04 03:37:43;;;;;;;1999.90;999.90;;;15.80;99.90;;;;;;5056144;28;20048;-82
2023/08/04 03:40:10;;;;;;;1999.90;999.90;;;15.80;99.90;;;;;;5056298;28;20048;-83
2023/08/04 03:42:39;;;;;;;1999.90;999.90;;;15.80;99.90;;;;;;5040468;28;20101;-82
2023/08/04 03:45:06;;;;;;;1999.90;999.90;;;15.80;99.90;;;;;;5023419;28;20131;-82
2023/08/04 03:47:34;;;;;;;1999.90;999.90;;;15.80;99.90;;;;;;5055925;28;20045;-82
2023/08/04 03:50:01;;;;;;;1999.90;999.90;;;15.80;99.90;;;;;;5039568;28;20048;-82
2023/08/04 03:52:26;;;;;;;1999.90;999.90;;;15.80;99.90;;;;;;5039483;28;20045;-82
2023/08/04 03:54:52;;;;;;;1999.90;999.90;;;15.70;99.90;;;;;;5040139;28;20432;-81
2023/08/04 03:57:18;;;;;;;1999.90;999.90;;;15.80;99.90;;;;;;5056383;28;20052;-82
2023/08/04 03:59:43;;;;;;;1999.90;999.90;;;15.80;99.90;;;;;;5022955;28;20052;-82
2023/08/04 04:02:09;;;;;;;1999.90;999.90;;;15.80;99.90;;;;;;5055732;28;20044;-83
2023/08/04 04:04:35;;;;;;;1999.90;999.90;;;15.80;99.90;;;;;;5023158;28;20072;-82
2023/08/04 04:07:00;;;;;;;1999.90;999.90;;;15.80;99.90;;;;;;5056538;28;20041;-82
2023/08/04 04:09:26;;;;;;;1999.90;999.90;;;15.80;99.90;;;;;;5039445;28;20468;-81
2023/08/04 04:11:52;;;;;;;1999.90;999.90;;;15.70;99.90;;;;;;5039271;28;20051;-82
2023/08/04 04:14:17;;;;;;;1999.90;999.90;;;15.80;99.90;;;;;;5022695;28;20080;-82
2023/08/04 04:16:43;;;;;;;1999.90;999.90;;;15.70;99.90;;;;;;5039017;28;20078;-81
2023/08/04 04:19:09;;;;;;;1999.90;999.90;;;15.80;99.90;;;;;;5039658;28;20063;-82
2023/08/04 04:21:34;;;;;;;1999.90;999.90;;;15.80;99.90;;;;;;5022971;28;20040;-80
2023/08/04 04:24:00;;;;;;;1999.90;999.90;;;15.80;99.90;;;;;;5055749;28;20044;-82
2023/08/04 04:26:25;;;;;;;1999.90;999.90;;;15.70;99.90;;;;;;5055707;28;20082;-81
2023/08/04 04:28:51;;;;;;;1999.90;999.90;;;15.70;99.90;;;;;;5022758;28;20048;-82
2023/08/04 04:31:17;;;;;;;1999.90;999.90;;;15.80;99.90;;;;;;5056528;28;20043;-81
2023/08/04 04:33:43;;;;;;;1999.90;999.90;;;15.80;99.90;;;;;;5023509;28;20476;-82
2023/08/04 04:36:08;;;;;;;1999.90;999.90;;;15.80;99.90;;;;;;5039087;28;20480;-81
2023/08/04 04:38:34;;;;;;;1999.90;999.90;;;15.80;99.90;;;;;;5055845;28;20044;-83
2023/08/04 04:41:01;;;;;;;1999.90;999.90;;;15.80;99.90;;;;;;5022629;28;20475;-80
2023/08/04 04:43:28;;;;;;;1999.90;999.90;;;15.90;99.90;;;;;;5074111;28;20052;-82
2023/08/04 04:45:55;;;;;;;1999.90;999.90;;;15.90;99.90;;;;;;5039072;28;20053;-80
2023/08/04 04:48:22;;;;;;;1999.90;999.90;;;15.90;99.90;;;;;;5056448;28;20345;-83
2023/08/04 04:50:50;;;;;;;1999.90;999.90;;;15.80;99.90;;;;;;5055655;28;20072;-81
2023/08/04 04:53:16;;;;;;;1999.90;999.90;;;15.90;99.90;;;;;;5055766;28;20091;-79
2023/08/04 04:55:41;;;;;;;1999.90;999.90;;;15.80;99.90;;;;;;5055524;28;20048;-82
2023/08/04 04:58:07;;;;;;;1999.90;999.90;;;15.80;99.90;;;;;;5038925;28;20483;-81
2023/08/04 05:00:34;;;;;;;1999.90;999.90;;;15.70;99.90;;;;;;5055726;28;20088;-82
2023/08/04 05:03:00;;;;;;;1999.90;999.90;;;15.70;99.90;;;;;;5038892;28;20044;-83
2023/08/04 05:05:28;;;;;;;1999.90;999.90;;;15.60;99.90;;;;;;5055401;28;20148;-81
2023/08/04 05:07:54;;;;;;;1999.90;999.90;;;15.70;99.90;;;;;;5022122;28;20048;-84
2023/08/04 05:10:20;;;;;;;1999.90;999.90;;;15.60;99.90;;;;;;5022405;28;20048;-82
2023/08/04 05:12:45;;;;;;;1999.90;999.90;;;15.60;99.90;;;;;;5039630;28;20040;-82
2023/08/04 05:15:11;;;;;;;1999.90;999.90;;;15.60;99.90;;;;;;5005770;28;20041;-84
2023/08/04 05:17:37;;;;;;;1999.90;999.90;;;15.60;99.90;;;;;;5038570;28;20060;-82
2023/08/04 05:20:03;;;;;;;1999.90;999.90;;;15.60;99.90;;;;;;5038687;28;20057;-83
2023/08/04 05:22:29;;;;;;;1999.90;999.90;;;15.50;99.90;;;;;;5023129;28;20145;-83
2023/08/04 05:24:54;;;;;;;1999.90;999.90;;;15.50;99.90;;;;;;5026025;28;20143;-83
2023/08/04 05:27:20;;;;;;;1999.90;999.90;;;15.50;99.90;;;;;;5042491;28;20047;-83
2023/08/04 05:29:46;;;;;;;1999.90;999.90;;;15.60;99.90;;;;;;5025971;28;20055;-82
2023/08/04 05:32:11;;;;;;;1999.90;999.90;;;15.60;99.90;;;;;;5042972;28;20495;-81
2023/08/04 05:34:37;;;;;;;1999.90;999.90;;;15.60;99.90;;;;;;5026248;28;20045;-82
2023/08/04 05:37:03;;;;;;;1999.90;999.90;;;15.60;99.90;;;;;;5025645;28;20165;-81
2023/08/04 05:39:29;;;;;;;1999.90;999.90;;;15.60;99.90;;;;;;5009257;28;20049;-81
2023/08/04 05:41:54;;;;;;;1999.90;999.90;;;15.60;99.90;;;;;;5025827;28;20044;-80
2023/08/04 05:44:22;;;;;;;1999.90;999.90;;;15.70;99.90;;;;;;5059365;28;20472;-82
2023/08/04 05:46:48;;;;;;;1999.90;999.90;;;15.70;99.90;;;;;;5042144;28;20044;-82
2023/08/04 05:49:13;;;;;;;1999.90;999.90;;;15.70;99.90;;;;;;5058482;28;20040;-81
2023/08/04 05:51:39;;;;;;;1999.90;999.90;;;15.70;99.90;;;;;;5058279;28;20048;-82
2023/08/04 05:54:05;;;;;;;1999.90;999.90;;;15.70;99.90;;;;;;5025139;28;20047;-81
2023/08/04 05:56:30;;;;;;;1999.90;999.90;;;15.80;99.90;;;;;;5025359;28;20117;-81
2023/08/04 05:58:56;;;;;;;1999.90;999.90;;;15.80;99.90;;;;;;5009025;28;20040;-81
2023/08/04 06:01:22;;;;;;;1999.90;999.90;;;15.80;99.90;;;;;;5041626;28;20127;-82
2023/08/04 06:03:47;;;;;;;1999.90;999.90;;;15.80;99.90;;;;;;5025091;28;20503;-82
2023/08/04 06:06:13;;;;;;;1999.90;999.90;;;15.90;99.90;;;;;;5025062;28;20093;-82
2023/08/04 06:08:39;;;;;;;1999.90;999.90;;;15.90;99.90;;;;;;5008637;28;20092;-82
2023/08/04 06:11:04;;;;;;;1999.90;999.90;;;15.90;99.90;;;;;;5025221;28;20541;-82
2023/08/04 06:13:30;;;;;;;1999.90;999.90;;;16.00;99.90;;;;;;5040764;28;20436;-82
2023/08/04 06:15:56;;;;;;;1999.90;999.90;;;16.00;99.90;;;;;;5041400;28;20048;-82
2023/08/04 06:18:21;;;;;;;1999.90;999.90;;;16.00;99.90;;;;;;5024302;28;20106;-82
2023/08/04 06:20:47;;;;;;;1999.90;999.90;;;16.10;99.90;;;;;;5042060;28;20052;-82
2023/08/04 06:23:13;;;;;;;1999.90;999.90;;;16.10;99.90;;;;;;5024625;28;20170;-82
2023/08/04 06:25:39;;;;;;;1999.90;999.90;;;16.10;99.90;;;;;;5041151;28;20106;-82
2023/08/04 06:28:05;;;;;;;1999.90;999.90;;;16.20;99.90;;;;;;5057448;28;20438;-82
2023/08/04 06:30:31;;;;;;;1999.90;999.90;;;16.20;99.90;;;;;;5057666;28;20102;-80
2023/08/04 06:32:57;;;;;;;1999.90;999.90;;;16.30;99.90;;;;;;5041033;28;20040;-81
2023/08/04 06:35:22;;;;;;;1999.90;999.90;;;16.30;99.90;;;;;;5040421;28;20106;-81
2023/08/04 06:37:48;;;;;;;1999.90;999.90;;;16.40;99.90;;;;;;5041719;28;20131;-82
2023/08/04 06:40:14;;;;;;;1999.90;999.90;;;16.40;99.90;;;;;;5057429;28;20087;-82
2023/08/04 06:42:39;;;;;;;1999.90;999.90;;;16.50;99.90;;;;;;5057430;28;20391;-81
2023/08/04 06:45:06;;;;;;;1999.90;999.90;;;16.50;99.90;;;;;;5057433;28;20500;-81
2023/08/04 06:47:32;;;;;;;1999.90;999.90;;;16.50;99.90;;;;;;5057339;28;20048;-80
2023/08/04 06:49:58;;;;;;;1999.90;999.90;;;16.60;99.90;;;;;;5057520;28;20467;-81
2023/08/04 06:52:25;;;;;;;1999.90;999.90;;;16.60;99.90;;;;;;5041293;28;20056;-81
2023/08/04 06:54:51;;;;;;;1999.90;999.90;;;16.60;99.90;;;;;;5057026;28;20099;-81
2023/08/04 06:57:16;;;;;;;1999.90;999.90;;;16.60;99.90;;;;;;5008609;28;20125;-81
2023/08/04 06:59:42;;;;;;;1999.90;999.90;;;16.70;99.90;;;;;;5057955;28;20479;-81
2023/08/04 07:02:08;;;;;;;1999.90;999.90;;;16.70;99.90;;;;;;5040543;28;20051;-82
2023/08/04 07:04:33;;;;;;;1999.90;999.90;;;16.70;99.90;;;;;;5057232;28;20045;-82
2023/08/04 07:06:59;;;;;;;1999.90;999.90;;;16.70;99.90;;;;;;5024096;28;20127;-81
2023/08/04 07:09:27;;;;;;;1999.90;999.90;;;16.80;99.90;;;;;;5024799;28;20045;-82
2023/08/04 07:11:53;;;;;;;1999.90;999.90;;;16.80;99.90;;;;;;5040754;28;20170;-83
2023/08/04 07:14:19;;;;;;;1999.90;999.90;;;16.90;99.90;;;;;;5040151;28;20127;-82
2023/08/04 07:16:46;;;;;;;1999.90;999.90;;;16.90;99.90;;;;;;5040949;28;20094;-82
2023/08/04 07:19:13;;;;;;;1999.90;999.90;;;16.90;99.90;;;;;;5008772;28;20084;-80
2023/08/04 07:21:38;;;;;;;1999.90;999.90;;;17.00;99.90;;;;;;5039833;28;20052;-78
2023/08/04 07:24:04;;;;;;;1999.90;999.90;;;17.00;99.90;;;;;;5040890;28;20052;-81
2023/08/04 07:26:32;;;;;;;1999.90;999.90;;;17.00;99.90;;;;;;5056642;28;20052;-81
2023/08/04 07:28:58;;;;;;;1999.90;999.90;;;17.00;99.90;;;;;;5056242;28;20123;-82
2023/08/04 07:31:24;;;;;;;1999.90;999.90;;;17.10;99.90;;;;;;5056717;28;20044;-82
2023/08/04 07:33:49;;;;;;;1999.90;999.90;;;17.10;99.90;;;;;;5040000;28;20043;-81
2023/08/04 07:36:15;;;;;;;1999.90;999.90;;;17.10;99.90;;;;;;5039862;28;20060;-81
2023/08/04 07:38:41;;;;;;;1999.90;999.90;;;17.10;99.90;;;;;;5040679;28;20136;-81
2023/08/04 07:41:07;;;;;;;1999.90;999.90;;;17.10;99.90;;;;;;5057248;28;20040;-80
2023/08/04 07:43:33;;;;;;;1999.90;999.90;;;17.20;99.90;;;;;;5078716;28;20049;-81
2023/08/04 07:45:58;;;;;;;1999.90;999.90;;;17.20;99.90;;;;;;5039264;28;20044;-81
2023/08/04 07:48:24;;;;;;;1999.90;999.90;;;17.30;99.90;;;;;;5056589;28;20388;-81
2023/08/04 07:50:51;;;;;;;1999.90;999.90;;;17.30;99.90;;;;;;5056329;28;20133;-80
2023/08/04 07:53:17;;;;;;;1999.90;999.90;;;17.30;99.90;;;;;;5056477;28;20041;-81
2023/08/04 07:55:54;;;;;;;1999.90;999.90;;;17.40;99.90;;;;;;5056250;28;20508;-81
2023/08/04 07:58:19;;;;;;;1999.90;999.90;;;17.50;99.90;;;;;;5023537;28;20045;-79
2023/08/04 08:00:45;;;;;;;1999.90;999.90;;;17.50;99.90;;;;;;5056260;28;20468;-81
2023/08/04 08:03:11;;;;;;;1999.90;999.90;;;17.60;99.90;;;;;;5039615;28;20092;-83
2023/08/04 08:05:36;;;;;;;1999.90;999.90;;;17.60;99.90;;;;;;5039779;28;20074;-82
2023/08/04 08:08:02;;;;;;;1999.90;999.90;;;17.70;99.90;;;;;;5039505;28;20052;-79
2023/08/04 08:10:28;;;;;;;1999.90;999.90;;;17.80;99.90;;;;;;5039447;28;20044;-80
2023/08/04 08:12:54;;;;;;;1999.90;999.90;;;17.80;99.90;;;;;;5039419;28;20040;-79
2023/08/04 08:15:20;;;;;;;1999.90;999.90;;;17.80;99.90;;;;;;5039192;28;20080;-80
2023/08/04 08:17:45;;;;;;;1999.90;999.90;;;17.80;99.90;;;;;;5039169;28;20056;-79
2023/08/04 08:20:11;;;;;;;1999.90;999.90;;;17.90;99.90;;;;;;5039304;28;20040;-81
2023/08/04 08:22:37;;;;;;;1999.90;999.90;;;17.90;99.90;;;;;;5039489;28;20135;-80
2023/08/04 08:25:03;;;;;;;1999.90;999.90;;;17.90;99.90;;;;;;5055761;28;20052;-80
2023/08/04 08:27:28;;;;;;;1999.90;999.90;;;18.00;99.90;;;;;;5039468;28;20054;-78
2023/08/04 08:29:55;;;;;;;1999.90;999.90;;;18.10;99.90;;;;;;5039057;28;20047;-76
2023/08/04 08:32:21;;;;;;;1999.90;999.90;;;18.10;99.90;;;;;;5023734;28;20052;-79
2023/08/04 08:34:47;;;;;;;1999.90;999.90;;;18.20;99.90;;;;;;5039892;28;20051;-79
2023/08/04 08:37:13;;;;;;;1999.90;999.90;;;18.20;99.90;;;;;;5038817;28;20407;-79
2023/08/04 08:39:38;;;;;;;1999.90;999.90;;;18.20;99.90;;;;;;5039171;28;20091;-72
2023/08/04 08:42:04;;;;;;;1999.90;999.90;;;18.30;99.90;;;;;;5056371;28;20532;-75
2023/08/04 08:44:30;;;;;;;1999.90;999.90;;;18.20;99.90;;;;;;5056552;28;20036;-77
2023/08/04 08:46:56;;;;;;;1999.90;999.90;;;18.20;99.90;;;;;;5056548;28;20067;-77
2023/08/04 08:49:26;;;;;;;1999.90;999.90;;;18.20;99.90;;;;;;5056563;28;20132;-77
2023/08/04 08:51:54;;;;;;;1999.90;999.90;;;18.10;99.90;;;;;;5055592;28;20044;-78
2023/08/04 08:54:20;;;;;;;1999.90;999.90;;;18.00;99.90;;;;;;5055317;28;20483;-75
2023/08/04 08:56:46;;;;;;;1999.90;999.90;;;17.90;99.90;;;;;;5073328;28;20451;-76
2023/08/04 08:59:12;;;;;;;1999.90;999.90;;;17.90;99.90;;;;;;5057763;28;20052;-75
2023/08/04 09:01:38;;;;;;;1999.90;999.90;;;17.80;99.90;;;;;;5060264;28;20053;-77
2023/08/04 09:04:05;;;;;;;1999.90;999.90;;;17.80;99.90;;;;;;5059386;28;20055;-78
2023/08/04 09:06:31;;;;;;;1999.90;999.90;;;17.80;99.90;;;;;;5059359;28;20047;-78
2023/08/04 09:09:00;;;;;;;1999.90;999.90;;;17.80;99.90;;;;;;5059606;28;20052;-78
2023/08/04 09:11:28;;;;;;;1999.90;999.90;;;17.80;99.90;;;;;;5043236;28;20484;-79
2023/08/04 09:13:55;;;;;;;1999.90;999.90;;;17.80;99.90;;;;;;5060009;28;20415;-75
2023/08/04 09:16:36;;;;;;;1999.90;999.90;;;17.80;99.90;;;;;;5059218;28;20056;-76
2023/08/04 09:19:09;;;;;;;1999.90;999.90;;;17.90;99.90;;;;;;5059132;28;20053;-78
2023/08/04 09:21:36;;;;;;;1999.90;999.90;;;17.90;99.90;;;;;;5042155;28;20135;-77
2023/08/04 09:24:03;;;;;;;1999.90;999.90;;;17.90;99.90;;;;;;5042490;28;20387;-77
2023/08/04 09:26:42;;;;;;;1999.90;999.90;;;18.00;99.90;;;;;;5042746;28;20410;-77
2023/08/04 09:29:08;;;;;;;1999.90;999.90;;;18.00;99.90;;;;;;5059798;28;20040;-76
2023/08/04 09:31:36;;;;;;;1999.90;999.90;;;18.00;99.90;;;;;;5058803;28;20044;-75
2023/08/04 09:34:04;;;;;;;1999.90;999.90;;;17.90;99.90;;;;;;5058956;28;20048;-77
2023/08/04 09:36:30;;;;;;;1999.90;999.90;;;18.00;99.90;;;;;;5058778;28;20047;-77
2023/08/04 09:39:04;;;;;;;1999.90;999.90;;;17.90;99.90;;;;;;5042043;28;20062;-75
2023/08/04 09:41:33;;;;;;;1999.90;999.90;;;17.80;99.90;;;;;;5058658;28;20102;-77
2023/08/04 09:44:04;;;;;;;1999.90;999.90;;;17.80;99.90;;;;;;5042063;28;20056;-76
2023/08/04 09:46:30;;;;;;;1999.90;999.90;;;17.80;99.90;;;;;;5042281;28;20056;-76
2023/08/04 09:48:59;;;;;;;1999.90;999.90;;;17.90;99.90;;;;;;5058570;28;20043;-77
2023/08/04 09:51:25;;;;;;;1999.90;999.90;;;18.00;99.90;;;;;;5058721;28;20043;-79
2023/08/04 09:53:54;;;;;;;1999.90;999.90;;;18.10;99.90;;;;;;5075554;28;20084;-78
2023/08/04 09:56:23;;;;;;;1999.90;999.90;;;18.10;99.90;;;;;;5058518;28;20419;-79
2023/08/04 09:58:49;;;;;;;1999.90;999.90;;;18.20;99.90;;;;;;5058263;28;20406;-80
2023/08/04 10:01:16;;;;;;;1999.90;999.90;;;18.20;99.90;;;;;;5058155;28;20048;-78
2023/08/04 10:03:45;;;;;;;1999.90;999.90;;;18.20;99.90;;;;;;5058366;28;20052;-77
2023/08/04 10:06:11;;;;;;;1999.90;999.90;;;18.30;99.90;;;;;;5058112;28;20036;-77
2023/08/04 10:08:40;;;;;;;1999.90;999.90;;;18.40;99.90;;;;;;5057824;28;20090;-78
2023/08/04 10:11:07;;;;;;;1999.90;999.90;;;18.50;99.90;;;;;;5075361;28;20044;-78
2023/08/04 10:13:46;;;;;;;1999.90;999.90;;;18.60;99.90;;;;;;5057781;28;20040;-78
2023/08/04 10:16:17;;;;;;;1999.90;999.90;;;18.70;99.90;;;;;;5058756;28;20067;-76
2023/08/04 10:19:00;;;;;;;1999.90;999.90;;;18.70;99.90;;;;;;5057100;28;20061;-77
2023/08/04 10:21:28;;;;;;;1999.90;999.90;;;18.70;99.90;;;;;;5058394;28;20475;-77
2023/08/04 10:23:57;;;;;;;1999.90;999.90;;;18.70;99.90;;;;;;5041361;28;20056;-77
2023/08/04 10:26:23;;;;;;;1999.90;999.90;;;18.60;99.90;;;;;;5057922;28;20514;-79
2023/08/04 10:29:05;;;;;;;1999.90;999.90;;;18.60;99.90;;;;;;5041615;28;20087;-79
2023/08/04 10:31:44;;;;;;;1999.90;999.90;;;18.60;99.90;;;;;;5058188;28;20496;-78
2023/08/04 10:34:41;;;;;;;1999.90;999.90;;;18.60;99.90;;;;;;5057912;28;20052;-74
2023/08/04 10:37:15;;;;;;;1999.90;999.90;;;18.70;99.90;;;;;;5058549;28;20140;-76
2023/08/04 10:39:45;;;;;;;1999.90;999.90;;;18.70;99.90;;;;;;5041332;28;20049;-75
2023/08/04 10:42:30;;;;;;;1999.90;999.90;;;18.90;99.90;;;;;;5057514;28;20087;-75
2023/08/04 10:45:07;;;;;;;1999.90;999.90;;;19.00;99.90;;;;;;5041804;28;20106;-73
2023/08/04 10:47:42;;;;;;;1999.90;999.90;;;19.00;99.90;;;;;;5058370;28;20048;-75
2023/08/04 10:50:08;;;;;;;1999.90;999.90;;;19.10;99.90;;;;;;5075094;28;20040;-75
2023/08/04 10:52:35;;;;;;;1999.90;999.90;;;19.20;99.90;;;;;;5075010;28;20078;-74
2023/08/04 10:55:04;;;;;;;1999.90;999.90;;;19.30;99.90;;;;;;5074910;28;20119;-76
2023/08/04 10:57:31;;;;;;;1999.90;999.90;;;19.30;99.90;;;;;;5075236;28;20048;-77
2023/08/04 10:59:57;;;;;;;1999.90;999.90;;;19.30;99.90;;;;;;5057570;28;20131;-75
2023/08/04 11:02:24;;;;;;;1999.90;999.90;;;19.30;99.90;;;;;;5057465;28;20391;-75
2023/08/04 11:04:54;;;;;;;1999.90;999.90;;;19.30;99.90;;;;;;5057153;28;20052;-75
2023/08/04 11:07:21;;;;;;;1999.90;999.90;;;19.40;99.90;;;;;;5057068;28;20047;-76
2023/08/04 11:09:48;;;;;;;1999.90;999.90;;;19.40;99.90;;;;;;5057055;28;20429;-71
2023/08/04 11:12:15;;;;;;;1999.90;999.90;;;19.40;99.90;;;;;;5075157;28;20041;-73
2023/08/04 11:14:42;;;;;;;1999.90;999.90;;;19.50;99.90;;;;;;5056887;28;20542;-75
2023/08/04 11:17:19;;;;;;;1999.90;999.90;;;19.40;99.90;;;;;;5074848;28;20083;-75
2023/08/04 11:19:46;;;;;;;1999.90;999.90;;;19.40;99.90;;;;;;5057599;28;20414;-74
2023/08/04 11:22:15;;;;;;;1999.90;999.90;;;19.30;99.90;;;;;;5039573;28;20048;-75
2023/08/04 11:24:42;;;;;;;1999.90;999.90;;;19.20;99.90;;;;;;5040257;28;20053;-74
2023/08/04 11:27:09;;;;;;;1999.90;999.90;;;19.10;99.90;;;;;;5057468;28;20037;-76
2023/08/04 11:29:36;;;;;;;1999.90;999.90;;;19.10;99.90;;;;;;5057481;28;20144;-75
2023/08/04 11:32:17;;;;;;;1999.90;999.90;;;19.10;99.90;;;;;;5075041;28;20117;-75
2023/08/04 11:34:43;;;;;;;1999.90;999.90;;;19.20;99.90;;;;;;5057348;28;20057;-76
2023/08/04 11:37:09;;;;;;;1999.90;999.90;;;19.30;99.90;;;;;;5040025;28;20045;-74
2023/08/04 11:39:37;;;;;;;1999.90;999.90;;;19.40;99.90;;;;;;5056462;28;20468;-75
2023/08/04 11:42:04;;;;;;;1999.90;999.90;;;19.50;99.90;;;;;;5056508;28;20052;-76
2023/08/04 11:44:30;;;;;;;1999.90;999.90;;;19.70;99.90;;;;;;5074655;28;20448;-75
2023/08/04 11:46:56;;;;;;;1999.90;999.90;;;19.90;99.90;;;;;;5056358;28;20048;-75
2023/08/04 11:49:22;;;;;;;1999.90;999.90;;;19.90;99.90;;;;;;5056189;28;20479;-73
2023/08/04 11:51:49;;;;;;;1999.90;999.90;;;19.90;99.90;;;;;;5073958;28;20078;-76
2023/08/04 11:54:23;;;;;;;1999.90;999.90;;;19.80;99.90;;;;;;5055985;28;20055;-74
2023/08/04 11:56:53;;;;;;;1999.90;999.90;;;19.70;99.90;;;;;;5057100;28;20102;-76